Hauptseite
METAR-TAF:

METAR-TAF

Flughäfen :

Flugplatz Illesheim

Illesheim, Deutschland

Breite: 49-28N, Länge: 010-23E, Höhe: 325 m

Beobachtung

Neuester Wetterbericht von vor 1 Stunde und 5 Minuten, um 04:55 UTC
Windstille
Temperatur 14°C
Luftfeuchtigkeit 88%
Luftdruck 1020 hPa
Sichtweite 10 km oder mehr
Himmel klar

METAR: ETIK 240455Z AUTO 00000KT 9999 CLR 14/12 A3012 RMK AO2 SLP199 T01390118

Zeit: 08:00 (06:00 UTC)


TAF: fehlend

Wetterbeobachtungen und Prognosen von mehr als 4000 Flughäfen (METAR und TAF Bericht).

Die verfügbaren Stationen werden durch gelbe und rote Markierungen auf der Karte dargestellt.

Führen Sie die Maus auf sie, um den Namen der Station zu sehen.

Darauf klicken, um die Beobachtung von Wetterbeobachtungen und Prognosen zu sehen.

Um die Karte zu ändern : klicken Sie auf den grünen Tasten mit einem schwarzen Kreuz Zum Vergrößern, auf den grünen Button mit einem Gedankenstrich zu verkleinern, oder auf die grünen Pfeile für benachbarte Karten.


METAR-TAF: